Flight Track Log - Related Links

Times and Time Zones

All times are in EDT time to prevent confusion due to time zone crossing. See the SWA2166 flight status page for this flight to view local times or setup timezone preferences in your user account.

Time Position Orientation Groundspeed Altitude Reporting Facility
EDT Latitude Longitude Course Direction KTS MPH feet Rate Location/Type
Wed 07:00:50 PM 33.5467 -86.7856 238° Southwest 165 190 1,600  Level Atlanta Center
Wed 07:02:21 PM 33.5031 -86.8689 238° Southwest 240 276 4,200 2,408 Climbing Atlanta Center
Wed 07:03:27 PM 33.4514 -86.9369 228° Southwest 292 336 7,900 3,000 Climbing Atlanta Center
Wed 07:04:27 PM 33.4014 -87.0122 232° Southwest 292 336 10,500 2,800 Climbing Atlanta Center
Wed 07:05:27 PM 33.3386 -87.1022 230° Southwest 326 375 13,500 3,150 Climbing Atlanta Center
Wed 07:06:27 PM 33.2758 -87.1944 231° Southwest 353 406 16,800 3,100 Climbing Atlanta Center
Wed 07:07:27 PM 33.2089 -87.2864 229° Southwest 364 419 19,700 2,550 Climbing Atlanta Center
Wed 07:08:27 PM 33.1417 -87.3806 230° Southwest 370 426 21,900 2,270 Climbing Atlanta Center
Wed 07:10:32 PM 33.0028 -87.6150 235° Southwest 390 449 26,700 2,205 Climbing Memphis Center
Wed 07:11:32 PM 32.9447 -87.7283 239° Southwest 401 461 28,700 1,850 Climbing Memphis Center
Wed 07:12:32 PM 32.8844 -87.8439 238° Southwest 412 474 30,400 1,650 Climbing Memphis Center
Wed 07:13:32 PM 32.8342 -87.9442 239° Southwest 412 474 32,000 800 Climbing Memphis Center
Wed 07:14:32 PM 32.7758 -88.0569 238° Southwest 412 474 32,000  Level Memphis Center
Wed 07:15:32 PM 32.7153 -88.1722 238° Southwest 412 474 32,000  Level Memphis Center
Wed 07:16:32 PM 32.6567 -88.2869 239° Southwest 412 474 32,000  Level Memphis Center
Wed 07:17:32 PM 32.5939 -88.3994 237° Southwest 412 474 32,000  Level Memphis Center
Wed 07:18:32 PM 32.5331 -88.5167 238° Southwest 412 474 32,000  Level Memphis Center
Wed 07:19:32 PM 32.4761 -88.6261 238° Southwest 412 474 32,000  Level Memphis Center
Wed 07:20:32 PM 32.4169 -88.7356 237° Southwest 407 468 32,000 -350 Level Memphis Center
Wed 07:21:32 PM 32.3664 -88.8497 242° Southwest 407 468 31,300 -900 Descending Memphis Center
Wed 07:22:32 PM 32.3303 -88.9731 251° West 401 461 30,200 -650 Descending Memphis Center
Wed 07:23:32 PM 32.2958 -89.0942 251° West 396 456 30,000 -100 Descending Memphis Center
Wed 07:24:32 PM 32.2594 -89.2175 251° West 396 456 30,000  Level Memphis Center
Wed 07:25:32 PM 32.2253 -89.3406 252° West 396 456 30,000  Level Memphis Center
Wed 07:26:32 PM 32.1886 -89.4589 250° West 396 456 30,000  Level Memphis Center
Wed 07:27:32 PM 32.1539 -89.5819 252° West 396 456 30,000  Level Memphis Center
Wed 07:28:32 PM 32.1189 -89.7000 251° West 391 450 30,000  Level Memphis Center
Wed 07:29:32 PM 32.0842 -89.8203 251° West 391 450 30,000  Level Memphis Center
Wed 07:30:32 PM 32.0533 -89.9431 254° West 391 450 30,000  Level Memphis Center
Wed 07:31:32 PM 32.0475 -90.0681 267° West 385 443 30,000  Level Memphis Center
Wed 07:32:32 PM 32.0475 -90.1956 270° West 390 449 30,000  Level Memphis Center
Wed 07:33:32 PM 32.0456 -90.3231 269° West 390 449 30,000  Level Memphis Center
Wed 07:34:32 PM 32.0414 -90.4528 268° West 390 449 30,000  Level Memphis Center
Wed 07:36:47 PM 32.0283 -90.7519 267° West 399 459 30,000  Level Houston Center
Wed 07:37:49 PM 32.0228 -90.8681 267° West 394 453 30,000  Level Houston Center
Wed 07:38:51 PM 32.0039 -90.9939 260° West 391 450 30,000  Level Houston Center
Wed 07:39:53 PM 31.9436 -91.1303 243° Southwest 393 452 30,000  Level Houston Center
Wed 07:40:55 PM 31.8894 -91.2414 240° Southwest 392 451 30,000  Level Houston Center
Wed 07:41:57 PM 31.8400 -91.3533 243° Southwest 388 447 30,000  Level Houston Center
Wed 07:43:00 PM 31.7903 -91.4647 242° Southwest 384 442 30,000  Level Houston Center
Wed 07:44:02 PM 31.7447 -91.5786 245° Southwest 385 443 30,000  Level Houston Center
Wed 07:45:04 PM 31.6994 -91.6928 245° Southwest 387 445 30,000  Level Houston Center
Wed 07:46:06 PM 31.6350 -91.8217 240° Southwest 383 441 30,000  Level Houston Center
Wed 07:47:08 PM 31.5619 -91.9164 228° Southwest 388 447 30,000  Level Houston Center
Wed 07:48:10 PM 31.5022 -92.0200 236° Southwest 383 441 30,000  Level Houston Center
Wed 07:49:12 PM 31.4403 -92.1289 236° Southwest 382 440 30,000  Level Houston Center
Wed 07:50:14 PM 31.3847 -92.2353 239° Southwest 384 442 30,000  Level Houston Center
Wed 07:51:16 PM 31.3286 -92.3386 238° Southwest 379 436 30,000 -48 Level Houston Center
Wed 07:52:18 PM 31.2711 -92.4428 237° Southwest 382 440 29,900  Descending Houston Center
Wed 07:53:20 PM 31.2011 -92.5694 237° Southwest 388 447 30,000 48 Climbing Houston Center
Wed 07:54:23 PM 31.1456 -92.6739 238° Southwest 382 440 30,000 -192 Level Houston Center
Wed 07:55:25 PM 31.0856 -92.7775 236° Southwest 384 442 29,600 -581 Descending Houston Center
Wed 07:56:27 PM 30.9836 -92.8361 206° Southwest 389 448 28,800 -726 Descending Houston Center
Wed 07:57:29 PM 30.8831 -92.8817 201° Southwest 387 445 28,100 -387 Descending Houston Center
Wed 07:58:31 PM 30.7819 -92.9261 201° Southwest 390 449 28,000 -48 Descending Houston Center
Wed 07:59:33 PM 30.6650 -92.9842 203° Southwest 392 451 28,000  Level Houston Center
Wed 08:00:35 PM 30.5803 -93.0622 218° Southwest 390 449 28,000  Level Houston Center
Wed 08:01:38 PM 30.4964 -93.1397 219° Southwest 388 447 28,000  Level Houston Center
Wed 08:02:39 PM 30.4631 -93.2567 252° West 385 443 28,000 -390 Level Houston Center
Wed 08:03:41 PM 30.4358 -93.3783 255° West 390 449 27,200 -919 Descending Houston Center
Wed 08:04:43 PM 30.4050 -93.5069 254° West 396 456 26,100 -1,104 Descending Houston Center
Wed 08:05:46 PM 30.3739 -93.6386 255° West 399 459 24,900 -1,104 Descending Houston Center
Wed 08:06:48 PM 30.3469 -93.7500 254° West 372 428 23,800 -1,065 Descending Houston Center
Wed 08:07:50 PM 30.3158 -93.8561 251° West 354 407 22,700 -1,839 Descending Houston Center
Wed 08:08:52 PM 30.2483 -93.9600 233° Southwest 340 391 20,000 -2,485 Descending Houston Center
Wed 08:09:29 PM 30.2161 -94.0183 237° Southwest 334 384 18,600 -2,419 Descending Houston Center
Wed 08:09:54 PM 30.2003 -94.0508 241° Southwest 333 383 17,500 -2,372 Descending Houston Center
Wed 08:10:55 PM 30.1558 -94.1500 243° Southwest 317 365 15,200 -1,742 Descending Houston Center
Wed 08:11:58 PM 30.1200 -94.2322 243° Southwest 318 366 13,900 -885 Descending Houston Center
Wed 08:12:57 PM 30.0706 -94.3256 239° Southwest 315 362 13,400 -800 Descending Houston Center
Wed 08:13:58 PM 29.9886 -94.3483 194° South 290 334 12,300 -1,328 Descending Houston Center
Wed 08:14:59 PM 29.9114 -94.3536 183° South 271 312 10,700 -1,547 Descending Houston Center
Wed 08:16:06 PM 29.8325 -94.3639 186° South 257 296 9,000 -1,623 Descending Houston Center
Wed 08:17:01 PM 29.7778 -94.4050 213° Southwest 253 291 7,400 -1,552 Descending Houston Center
Wed 08:18:02 PM 29.7147 -94.4467 210° Southwest 263 303 6,000 -656 Descending Houston Center
Wed 08:19:09 PM 29.6533 -94.5078 221° Southwest 256 295 6,000  Level Houston Center
Wed 08:20:10 PM 29.6250 -94.5833 247° West 256 295 6,000  Level Houston Center
Wed 08:21:06 PM 29.5961 -94.6519 244° Southwest 260 299 6,000  Level Houston Center
Wed 08:22:13 PM 29.5664 -94.7353 248° West 260 299 6,000  Level Houston Center
Wed 08:23:14 PM 29.5339 -94.8139 245° Southwest 258 297 6,000  Level Houston Center
Wed 08:24:23 PM 29.5067 -94.8864 247° West 246 283 6,000 -541 Level Houston Center
Wed 08:25:16 PM 29.4836 -94.9472 246° West 216 249 4,900 -950 Descending Houston Center
Wed 08:26:23 PM 29.4586 -95.0153 247° West 184 212 4,100 -703 Descending Houston Center
Wed 08:27:24 PM 29.4750 -95.0781 287° West 242 278 3,400 -776 Descending Houston Center
Wed 08:28:19 PM 29.5131 -95.1239 314° West 207 238 2,600 -672 Descending Houston Center
Wed 08:29:20 PM 29.5483 -95.1650 315° West 179 206 2,100 -390 Descending Houston Center
Wed 08:30:22 PM 29.5767 -95.2000 313° West 140 161 1,800 -488 Descending Houston Center
Wed 08:31:23 PM 29.6003 -95.2261 316° Northwest 115 132 1,100 -632 Descending Houston Center
Wed 08:31:38 PM 29.6064 -95.2344 310° West 140 161 1,000 -590 Descending Houston Center
Wed 08:32:24 PM 29.6239 -95.2569 312° West 120 138 500 -677 Descending Houston Center
Wed 08:32:40 PM 29.6297 -95.2608 330° Northwest 126 145 300 -231 Descending Houston Center
Wed 08:33:42 PM 29.6528 -95.2875 315° West 124 143 200 -97 Descending Houston Center

Login

Don't have an account? Register now (free) for customized features, flight alerts, and more!